Moxahala, Ohio
Current Conditions -  °F | °C
As of 4:53 AM on Wednesday 26 Nov 2014 (Local Time) from KZZV Reporting Station
Overcast Overcast  
Wind Chill: 29°   Ceiling: 11000
Heat Index: 29°   Visibility: 7mi
Dew Point: 26°   Wind: 3mph
Humidity: 89%   Direction: 360°N
Pressure: 30.09"   Gusts: NA
Location:  39.66°N, 82.14°W
Report Text: KZZV 260953Z AUTO 36003KT 7SM OVC110 M02/M03 A3009 RMK AO2 SLP196 T10171033
Loading
Personal Weather Stations






























Interactive Weather Map New forecast layout! Learn more

10-Day Weather Forecast

Advertisements
Track Severe Weather on mobile